createdAt,value
2022-08-11T00:03:56.210Z,978.98
2022-08-11T00:09:27.837Z,979.09
2022-08-11T00:15:03.881Z,979.03
2022-08-11T00:20:35.591Z,979.06
2022-08-11T00:26:07.391Z,978.95
2022-08-11T00:31:39.055Z,979.34
2022-08-11T00:37:10.771Z,979.38
2022-08-11T00:42:42.529Z,979.42
2022-08-11T00:48:14.254Z,979.36
2022-08-11T00:53:45.966Z,979.22
2022-08-11T00:59:36.529Z,978.64
2022-08-11T01:04:56.451Z,979.04
2022-08-11T01:10:21.430Z,979.48
2022-08-11T01:15:58.285Z,979.1
2022-08-11T01:21:29.001Z,979.94
2022-08-11T01:27:00.771Z,979.56
2022-08-11T01:32:32.481Z,979.54
2022-08-11T01:38:04.146Z,979.54
2022-08-11T01:43:35.898Z,979.78
2022-08-11T01:50:11.402Z,979.95
2022-08-11T01:54:39.265Z,979.54
2022-08-11T02:00:11.086Z,979.95
2022-08-11T02:05:42.822Z,979.87
2022-08-11T02:11:14.680Z,978.86
2022-08-11T02:16:50.532Z,979.23
2022-08-11T02:22:22.315Z,979.21
2022-08-11T02:27:54.111Z,978.91
2022-08-11T02:33:28.157Z,978.88
2022-08-11T02:38:57.742Z,979.15
2022-08-11T02:44:29.129Z,979.06
2022-08-11T02:50:08.496Z,978.63
2022-08-11T02:55:58.838Z,978.55
2022-08-11T03:01:04.435Z,978.67
2022-08-11T03:06:36.115Z,978.66
2022-08-11T03:12:07.822Z,978.54
2022-08-11T03:17:45.893Z,978.05
2022-08-11T03:23:20.905Z,978.1
2022-08-11T03:28:49.807Z,977.77
2022-08-11T03:34:21.065Z,977.49
2022-08-11T03:39:57.642Z,977.76
2022-08-11T03:45:24.522Z,977.67
2022-08-11T03:50:56.532Z,977.53
2022-08-11T03:56:27.966Z,978.03
2022-08-11T04:01:59.899Z,977.8
2022-08-11T04:07:31.422Z,977.6
2022-08-11T04:13:03.201Z,977.34
2022-08-11T04:18:39.366Z,977.64
2022-08-11T04:24:40.142Z,977.65
2022-08-11T04:30:09.075Z,977.74
2022-08-11T04:35:14.522Z,977.81
2022-08-11T04:40:46.212Z,977.98
2022-08-11T04:46:17.913Z,978.33
2022-08-11T04:51:49.563Z,978.61
2022-08-11T04:57:21.279Z,978.69
2022-08-11T05:02:53.021Z,978.79
2022-08-11T05:08:25.050Z,979.23
2022-08-11T05:13:56.484Z,979.88
2022-08-11T05:19:32.621Z,979.89
2022-08-11T05:25:04.308Z,980.37
2022-08-11T05:30:36.118Z,980.71
2022-08-11T05:36:07.972Z,980.98
2022-08-11T05:41:39.538Z,981.36
2022-08-11T05:47:13.440Z,981.73
2022-08-11T05:52:43.981Z,981.97
2022-08-11T05:58:14.798Z,982.66
2022-08-11T06:03:59.423Z,982.89
2022-08-11T06:09:18.167Z,983.11
2022-08-11T06:14:49.936Z,983.48
2022-08-11T06:20:26.223Z,983.01
2022-08-11T06:25:57.746Z,984.17
2022-08-11T06:31:29.426Z,983.72
2022-08-11T06:37:01.158Z,984.18
2022-08-11T06:42:33.062Z,984.75
2022-08-11T06:48:04.620Z,984.37
2022-08-11T06:53:36.365Z,984.75
2022-08-11T06:59:08.216Z,985.13
2022-08-11T07:04:39.892Z,985.26
2022-08-11T07:10:11.581Z,984.89
2022-08-11T07:16:14.429Z,985.33
2022-08-11T07:22:04.475Z,984.12
2022-08-11T07:26:50.933Z,985.51
2022-08-11T07:32:22.737Z,985.57
2022-08-11T07:38:07.020Z,984.67
2022-08-11T07:43:26.189Z,985.35
2022-08-11T07:48:57.970Z,985.52
2022-08-11T07:54:34.138Z,985.51
2022-08-11T08:00:05.740Z,985.79
2022-08-11T08:05:33.125Z,985.47
2022-08-11T08:11:04.818Z,985.28
2022-08-11T08:16:36.498Z,985.62
2022-08-11T08:22:42.863Z,985.45
2022-08-11T08:27:44.569Z,985.87
2022-08-11T08:33:17.073Z,985.78
2022-08-11T08:38:48.138Z,985.62
2022-08-11T08:44:42.263Z,985.71
2022-08-11T08:49:51.310Z,985.03
2022-08-11T08:55:22.990Z,984.76
2022-08-11T09:00:54.927Z,984.56
2022-08-11T09:06:28.855Z,983.8
2022-08-11T09:11:58.259Z,984.25
2022-08-11T09:17:30.133Z,984.63
2022-08-11T09:24:13.006Z,984.52
2022-08-11T09:28:37.695Z,984.43
2022-08-11T09:34:09.477Z,984.64
2022-08-11T09:39:41.304Z,984.44
2022-08-11T09:45:14.654Z,984.32
2022-08-11T09:50:44.682Z,983.94
2022-08-11T09:56:16.602Z,984.08
2022-08-11T10:01:48.310Z,983.95
2022-08-11T10:07:19.850Z,984.31
2022-08-11T10:12:51.581Z,984.09
2022-08-11T10:18:23.323Z,983.52
2022-08-11T10:24:06.463Z,983.21
2022-08-11T10:29:49.715Z,984.31
2022-08-11T10:35:02.934Z,984.48
2022-08-11T10:40:34.683Z,983.99
2022-08-11T10:46:06.357Z,983.73
2022-08-11T10:51:54.312Z,983.32
2022-08-11T10:57:10.650Z,982.94
2022-08-11T11:02:42.440Z,983.55
2022-08-11T11:08:14.233Z,983.62
2022-08-11T11:13:57.628Z,982.76
2022-08-11T11:19:17.659Z,982.98
2022-08-11T11:24:53.682Z,982.67
2022-08-11T11:30:25.506Z,982.02
2022-08-11T11:35:57.160Z,982.35
2022-08-11T11:41:28.956Z,982.3
2022-08-11T11:47:00.620Z,983.02
2022-08-11T11:52:32.300Z,981.57
2022-08-11T11:58:04.444Z,982.27
2022-08-11T12:03:36.156Z,982.09
2022-08-11T12:09:07.626Z,981.85
2022-08-11T12:14:39.258Z,982.65
2022-08-11T12:20:34.534Z,982.57
2022-08-11T12:26:04.545Z,982.27
2022-08-11T12:31:18.822Z,981.62
2022-08-11T12:36:50.633Z,981.78
2022-08-11T12:42:22.263Z,982.02
2022-08-11T12:49:03.614Z,981.74
2022-08-11T12:53:25.741Z,981.26
2022-08-11T12:58:57.350Z,981.38
2022-08-11T13:04:29.927Z,981.59
2022-08-11T13:10:01.781Z,981.6
2022-08-11T13:15:33.572Z,981.13
2022-08-11T13:21:05.202Z,980.78
2022-08-11T13:26:51.041Z,980.61
2022-08-11T13:32:15.207Z,981.72
2022-08-11T13:38:20.978Z,981.28
2022-08-11T13:43:18.638Z,980.99
2022-08-11T13:48:50.414Z,981.56
2022-08-11T13:54:22.211Z,981.18
2022-08-11T13:59:59.050Z,980.43
2022-08-11T14:05:25.629Z,980.11
2022-08-11T14:10:57.357Z,980.24
2022-08-11T14:16:29.396Z,980.08
2022-08-11T14:22:08.628Z,979.81
2022-08-11T14:28:41.937Z,979.96
2022-08-11T14:33:20.805Z,980.52
2022-08-11T14:38:40.442Z,980.0
2022-08-11T14:44:15.364Z,980.1
2022-08-11T14:50:12.624Z,980.27
2022-08-11T14:55:15.673Z,980.64
2022-08-11T15:00:47.505Z,980.2
2022-08-11T15:06:19.057Z,979.55
2022-08-11T15:11:51.054Z,979.6
2022-08-11T15:17:43.874Z,978.91
2022-08-11T15:22:54.601Z,979.41
2022-08-11T15:28:30.700Z,979.02
2022-08-11T15:34:02.561Z,979.31
2022-08-11T15:39:34.345Z,978.89
2022-08-11T15:45:06.656Z,979.32
2022-08-11T15:50:37.581Z,979.53
2022-08-11T15:56:09.479Z,978.95
2022-08-11T16:01:41.373Z,978.87
2022-08-11T16:07:13.578Z,979.17
2022-08-11T16:12:45.016Z,978.72
2022-08-11T16:18:16.413Z,978.6
2022-08-11T16:23:48.128Z,978.37
2022-08-11T16:29:24.404Z,978.68
2022-08-11T16:34:57.325Z,978.17
2022-08-11T16:40:27.579Z,977.9
2022-08-11T16:45:59.383Z,978.04
2022-08-11T16:51:31.272Z,978.35
2022-08-11T16:57:20.484Z,978.24
2022-08-11T17:02:34.549Z,978.04
2022-08-11T17:08:06.266Z,978.11
2022-08-11T17:13:37.970Z,977.87
2022-08-11T17:19:09.675Z,977.54
2022-08-11T17:24:41.349Z,977.53
2022-08-11T17:30:17.516Z,977.51
2022-08-11T17:35:49.209Z,977.7
2022-08-11T17:41:24.321Z,977.29
2022-08-11T17:46:52.687Z,977.64
2022-08-11T17:52:24.448Z,977.7
2022-08-11T17:57:56.133Z,977.32
2022-08-11T18:03:27.861Z,977.66
2022-08-11T18:08:59.638Z,977.71
2022-08-11T18:14:31.195Z,977.59
2022-08-11T18:20:02.917Z,977.55
2022-08-11T18:25:34.770Z,976.92
2022-08-11T18:31:13.905Z,977.07
2022-08-11T18:36:44.594Z,976.69
2022-08-11T18:42:30.449Z,976.36
2022-08-11T18:47:57.426Z,976.37
2022-08-11T18:53:19.727Z,976.16
2022-08-11T18:58:51.516Z,975.9
2022-08-11T19:04:23.594Z,976.4
2022-08-11T19:09:55.202Z,976.39
2022-08-11T19:15:27.042Z,976.64
2022-08-11T19:20:58.493Z,975.96
2022-08-11T19:26:30.349Z,976.22
2022-08-11T19:32:06.267Z,975.83
2022-08-11T19:37:45.050Z,976.18
2022-08-11T19:43:26.779Z,976.05
2022-08-11T19:48:41.430Z,976.06
2022-08-11T19:54:13.140Z,976.1
2022-08-11T19:59:44.804Z,976.23
2022-08-11T20:05:16.486Z,976.1
2022-08-11T20:10:48.283Z,976.24
2022-08-11T20:16:20.030Z,976.37
2022-08-11T20:21:52.039Z,976.39
2022-08-11T20:27:25.759Z,976.41
2022-08-11T20:32:59.549Z,976.17
2022-08-11T20:38:31.169Z,976.26
2022-08-11T20:44:10.036Z,976.21
2022-08-11T20:50:35.084Z,976.29
2022-08-11T20:55:45.945Z,976.5
2022-08-11T21:00:40.550Z,976.24
2022-08-11T21:06:13.223Z,976.68
2022-08-11T21:11:46.098Z,976.58
2022-08-11T21:18:08.291Z,976.23
2022-08-11T21:23:07.188Z,976.55
2022-08-11T21:28:19.650Z,976.27
2022-08-11T21:33:55.725Z,976.41
2022-08-11T21:39:27.847Z,976.89
2022-08-11T21:44:59.190Z,977.06
2022-08-11T21:50:30.705Z,977.14
2022-08-11T21:56:02.709Z,976.7
2022-08-11T22:01:35.697Z,976.86
2022-08-11T22:07:06.238Z,976.96
2022-08-11T22:12:45.689Z,976.37
2022-08-11T22:18:09.597Z,976.8
2022-08-11T22:23:42.451Z,976.52
2022-08-11T22:29:13.008Z,976.94
2022-08-11T22:34:54.306Z,977.02
2022-08-11T22:40:20.827Z,977.22
2022-08-11T22:45:52.572Z,977.36
2022-08-11T22:51:24.332Z,977.04
2022-08-11T22:56:56.074Z,976.97
2022-08-11T23:02:27.710Z,977.1
2022-08-11T23:07:59.484Z,977.34
2022-08-11T23:13:31.200Z,976.83
2022-08-11T23:19:03.543Z,976.67
2022-08-11T23:24:34.665Z,976.39
2022-08-11T23:30:06.431Z,976.41
2022-08-11T23:36:04.694Z,976.3
2022-08-11T23:41:16.303Z,976.44
2022-08-11T23:46:47.935Z,976.42
2022-08-11T23:52:19.647Z,976.03
2022-08-11T23:57:51.299Z,975.96
